Eurocargo Salerno — 9HA3534 — position and weather

sailwx.info

Track history (hours):
 
Tides and Currents Weather Stations Pressure Air Temp Water Temp Dewpoint Dewpoint Depression Visibility Wind Speed Wind Dir Waves Ship Positions

Eurocargo Salerno

Last reported at 2018-Apr-22 16:30 UTC. Time now 2018-Apr-23 05:13 UTC.
Position N 37°54' E 015°26'.

Length 195 m; draft 7 m.

Type: Cargo ship. MMSI: 229706000.

Date/timePositionNaut miles runAvg speedWind from/ knotsBaromVisibWave heightAir tempDewpointWater temp
2018-Apr-22 16:30N 37°54' E 015°26'815.5
2018-Apr-22 15:58N 38°01' E 015°31'715.7
2018-Apr-22 15:30N 38°08' E 015°35'916.2
2018-Apr-22 14:59N 38°16' E 015°40'714.0
2018-Apr-22 14:30N 38°22' E 015°37'815.8
2018-Apr-22 13:59N 38°28' E 015°30'816.0
2018-Apr-22 13:28N 38°34' E 015°22'816.1
2018-Apr-22 13:00N 38°39' E 015°15'815.8
2018-Apr-22 12:31N 38°45' E 015°09'8215.7
2018-Apr-22 07:17N 39°47' E 013°59'415.6
2018-Apr-22 07:01N 39°50' E 013°55'815.6
2018-Apr-22 06:30N 39°56' E 013°49'2215.6
2018-Apr-22 05:06N 40°12' E 013°30'1515.6
2018-Apr-22 04:09N 40°24' E 013°17'215.5
2018-Apr-22 04:00N 40°26' E 013°15'815.6
2018-Apr-22 03:29N 40°32' E 013°09'815.8
2018-Apr-22 02:58N 40°38' E 013°02'715.8
2018-Apr-22 02:30N 40°44' E 012°56'1915.9
2018-Apr-22 01:20N 40°58' E 012°40'516.0
2018-Apr-22 00:59N 41°02' E 012°36'816.1
2018-Apr-22 00:29N 41°09' E 012°29'816.0
2018-Apr-22 00:00N 41°15' E 012°22'2115.7
2018-Apr-21 22:40N 41°31' E 012°05'6615.5
2018-Apr-21 18:24N 42°21' E 011°06'915.5
2018-Apr-21 17:48N 42°27' E 010°57'1415.8
2018-Apr-21 16:57N 42°37' E 010°45'816.0
2018-Apr-21 16:27N 42°44' E 010°38'716.0
2018-Apr-21 16:01N 42°49' E 010°33'815.8
2018-Apr-21 15:31N 42°56' E 010°28'815.8
2018-Apr-21 15:01N 43°04' E 010°24'815.9
2018-Apr-21 14:31N 43°11' E 010°20'816.1
2018-Apr-21 14:01N 43°19' E 010°17'816.0
2018-Apr-21 13:31N 43°27' E 010°15'510.9
2018-Apr-21 13:00N 43°32' E 010°16'3 5.8
2018-Apr-21 12:30N 43°34' E 010°19'1 1.0
2018-Apr-21 11:56N 43°35' E 010°19'0 0.0
2018-Apr-21 11:29N 43°35' E 010°19'0 0.0
2018-Apr-21 11:00N 43°35' E 010°19'0 0.0
2018-Apr-21 10:29N 43°35' E 010°19'0 0.0
2018-Apr-21 10:00N 43°35' E 010°19'0 0.0
2018-Apr-21 09:29N 43°35' E 010°19'0 0.0
2018-Apr-21 08:59N 43°35' E 010°19'0 0.0
2018-Apr-21 08:29N 43°35' E 010°19'0 0.0
2018-Apr-21 08:00N 43°35' E 010°19'0 0.0
2018-Apr-21 07:29N 43°35' E 010°19'0 0.0
2018-Apr-21 06:59N 43°35' E 010°19'0 0.8
2018-Apr-21 06:30N 43°34' E 010°19'3 5.8
2018-Apr-21 06:00N 43°32' E 010°16'3 6.9
2018-Apr-21 05:30N 43°29' E 010°14'3 5.6
2018-Apr-21 05:00N 43°26' E 010°13'1 1.5
2018-Apr-21 04:30N 43°26' E 010°14'0 0.6
2018-Apr-21 04:00N 43°26' E 010°14'1 1.3
2018-Apr-21 03:30N 43°26' E 010°15'0 0.9
2018-Apr-21 03:00N 43°27' E 010°15'1 2.0
2018-Apr-21 02:30N 43°26' E 010°15'713.8
2018-Apr-21 02:00N 43°19' E 010°18'816.5
2018-Apr-21 01:30N 43°11' E 010°21'816.6
2018-Apr-21 01:00N 43°03' E 010°24'816.6
2018-Apr-21 00:30N 42°55' E 010°28'816.4
2018-Apr-21 00:00N 42°49' E 010°34'1016.4
2018-Apr-20 23:25N 42°41' E 010°42'16016.1
2018-Apr-20 13:27N 40°40' E 013°02'916.2
2018-Apr-20 12:55N 40°33' E 013°10'2816.4
2018-Apr-20 11:13N 40°13' E 013°34'316.2
2018-Apr-20 11:00N 40°10' E 013°37'816.4
2018-Apr-20 10:30N 40°04' E 013°44'916.5
2018-Apr-20 09:58N 39°57' E 013°52'816.3
2018-Apr-20 09:30N 39°52' E 013°59'7716.4
2018-Apr-20 04:46N 38°52' E 015°03'516.0
2018-Apr-20 04:29N 38°49' E 015°07'815.8
2018-Apr-20 04:00N 38°43' E 015°13'816.1
2018-Apr-20 03:30N 38°38' E 015°20'816.2
2018-Apr-20 03:00N 38°32' E 015°28'816.2
2018-Apr-20 02:30N 38°25' E 015°34'816.2
2018-Apr-20 02:00N 38°19' E 015°40'510.7
2018-Apr-20 01:30N 38°14' E 015°37'815.5
2018-Apr-20 00:59N 38°06' E 015°36'816.0
2018-Apr-20 00:30N 37°59' E 015°32'816.2
2018-Apr-19 23:59N 37°51' E 015°27'816.6
2018-Apr-19 23:30N 37°44' E 015°23'10 0.8
2018-Apr-19 11:10N 37°54' E 015°26'816.4
2018-Apr-19 10:39N 38°02' E 015°31'316.4
2018-Apr-19 10:29N 38°04' E 015°32'816.1
2018-Apr-19 10:00N 38°11' E 015°35'815.8
2018-Apr-19 09:30N 38°18' E 015°40'815.9
2018-Apr-19 08:59N 38°26' E 015°37'815.6
2018-Apr-19 08:29N 38°33' E 015°32'815.1
2018-Apr-19 07:58N 38°40' E 015°28'715.3
2018-Apr-19 07:29N 38°47' E 015°25'9215.8
2018-Apr-19 01:38N 40°14' E 014°43'415.7
2018-Apr-19 01:21N 40°18' E 014°43'815.8
2018-Apr-19 00:51N 40°26' E 014°43'616.0
2018-Apr-19 00:30N 40°31' E 014°43'6 1.0
2018-Apr-18 19:04N 40°37' E 014°41'114.5
2018-Apr-18 19:00N 40°36' E 014°40'815.2
2018-Apr-18 18:30N 40°34' E 014°30'715.3
2018-Apr-18 18:00N 40°32' E 014°21'1015.0
2018-Apr-18 17:19N 40°32' E 014°07'515.2
2018-Apr-18 17:00N 40°34' E 014°01'815.9
2018-Apr-18 16:30N 40°38' E 013°52'815.8
2018-Apr-18 16:00N 40°43' E 013°44'816.0
2018-Apr-18 15:30N 40°48' E 013°36'17615.6
2018-Apr-18 04:15N 42°44' E 010°39'1215.9
2018-Apr-18 03:31N 42°53' E 010°30'215.9
2018-Apr-18 03:25N 42°54' E 010°28'715.7
2018-Apr-18 02:59N 42°59' E 010°22'715.7
2018-Apr-18 02:30N 43°03' E 010°14'815.7
2018-Apr-18 02:00N 43°09' E 010°05'815.7
2018-Apr-18 01:30N 43°13' E 009°57'815.7
2018-Apr-18 01:00N 43°18' E 009°48'815.3
2018-Apr-18 00:30N 43°23' E 009°41'815.6
2018-Apr-18 00:00N 43°30' E 009°36'815.9
2018-Apr-17 23:30N 43°37' E 009°30'815.2
2018-Apr-17 23:00N 43°44' E 009°24'715.0
2018-Apr-17 22:30N 43°50' E 009°19'815.1
2018-Apr-17 22:00N 43°56' E 009°13'815.1
2018-Apr-17 21:30N 44°03' E 009°08'815.3
2018-Apr-17 21:00N 44°10' E 009°04'815.6
2018-Apr-17 20:30N 44°17' E 008°60'713.6
2018-Apr-17 20:00N 44°23' E 008°56'2 4.2
2018-Apr-17 19:28N 44°24' E 008°53'0 0.0
2018-Apr-17 18:55N 44°24' E 008°53'0 0.0
2018-Apr-17 18:28N 44°24' E 008°53'0 0.0
2018-Apr-17 17:58N 44°24' E 008°53'0 0.0
2018-Apr-17 17:28N 44°24' E 008°53'0 0.0
2018-Apr-17 16:58N 44°24' E 008°53'0 0.0
2018-Apr-17 16:28N 44°24' E 008°53'0 0.0
2018-Apr-17 15:58N 44°24' E 008°53'0 0.0
2018-Apr-17 15:28N 44°24' E 008°53'0 0.0
2018-Apr-17 14:58N 44°24' E 008°53'0 0.0
2018-Apr-17 14:28N 44°24' E 008°53'0 0.0
2018-Apr-17 13:58N 44°24' E 008°53'0 0.0
2018-Apr-17 13:28N 44°24' E 008°53'0 0.0
2018-Apr-17 12:58N 44°24' E 008°53'0 0.0
2018-Apr-17 12:28N 44°24' E 008°53'0 0.0
2018-Apr-17 11:58N 44°24' E 008°53'0 0.0
2018-Apr-17 11:28N 44°24' E 008°53'0 0.0
2018-Apr-17 10:58N 44°24' E 008°53'0 0.0
2018-Apr-17 10:28N 44°24' E 008°53'1 1.1
2018-Apr-17 10:00N 44°24' E 008°54'3 6.9
2018-Apr-17 09:30N 44°22' E 008°58'714.9
2018-Apr-17 09:00N 44°15' E 009°02'816.6
2018-Apr-17 08:30N 44°08' E 009°08'816.7
2018-Apr-17 08:00N 44°01' E 009°14'816.7
2018-Apr-17 07:30N 43°54' E 009°20'917.0
2018-Apr-17 07:00N 43°47' E 009°26'816.8
2018-Apr-17 06:30N 43°39' E 009°32'816.4
2018-Apr-17 06:00N 43°32' E 009°37'816.2
2018-Apr-17 05:30N 43°25' E 009°43'816.3
2018-Apr-17 05:00N 43°19' E 009°50'816.0
2018-Apr-17 04:30N 43°13' E 009°58'815.7
2018-Apr-17 04:00N 43°08' E 010°06'815.8
2018-Apr-17 03:30N 43°03' E 010°14'816.0
2018-Apr-17 03:00N 42°58' E 010°22'815.6
2018-Apr-17 02:30N 42°52' E 010°30'815.8
2018-Apr-17 02:00N 42°45' E 010°35'815.7
2018-Apr-17 01:30N 42°39' E 010°42'30116.0
2018-Apr-16 06:39N 38°52' E 015°04'515.8
2018-Apr-16 06:20N 38°48' E 015°08'516.3
2018-Apr-16 06:00N 38°44' E 015°12'816.0
2018-Apr-16 05:30N 38°38' E 015°19'816.5
2018-Apr-16 05:00N 38°33' E 015°27'816.2
2018-Apr-16 04:30N 38°27' E 015°34'816.1
2018-Apr-16 04:00N 38°21' E 015°41'510.7
2018-Apr-16 03:30N 38°15' E 015°40'814.9
2018-Apr-16 03:00N 38°08' E 015°37'815.3
2018-Apr-16 02:30N 38°01' E 015°33'916.1
2018-Apr-16 01:58N 37°53' E 015°28'915.9
2018-Apr-16 01:24N 37°46' E 015°22'9 0.9
2018-Apr-15 15:03N 37°54' E 015°26'114.7
2018-Apr-15 15:00N 37°55' E 015°27'814.8
2018-Apr-15 14:30N 38°02' E 015°31'714.4
2018-Apr-15 14:01N 38°08' E 015°34'714.6
2018-Apr-15 13:31N 38°15' E 015°38'511.0
2018-Apr-15 13:01N 38°20' E 015°38'816.0
2018-Apr-15 12:31N 38°26' E 015°32'815.7
2018-Apr-15 12:00N 38°32' E 015°25'715.1
2018-Apr-15 11:31N 38°38' E 015°19'915.5
2018-Apr-15 10:56N 38°45' E 015°11'7215.5
2018-Apr-15 06:17N 39°39' E 014°10'4815.0
2018-Apr-15 03:06N 40°15' E 013°30'214.6
2018-Apr-15 02:59N 40°17' E 013°28'714.6
2018-Apr-15 02:30N 40°22' E 013°22'714.5
2018-Apr-15 02:01N 40°27' E 013°16'714.3
2018-Apr-15 01:31N 40°32' E 013°09'17215.4
2018-Apr-14 14:23N 42°43' E 010°40'1815.5
2018-Apr-14 13:15N 42°58' E 010°27'415.4
2018-Apr-14 13:00N 43°01' E 010°25'816.0
2018-Apr-14 12:30N 43°08' E 010°21'815.8
2018-Apr-14 12:01N 43°16' E 010°18'815.6
2018-Apr-14 11:31N 43°24' E 010°16'815.3
2018-Apr-14 11:01N 43°31' E 010°14'5 9.3
2018-Apr-14 10:30N 43°34' E 010°18'1 1.2
2018-Apr-14 09:56N 43°35' E 010°19'0 0.0
2018-Apr-14 09:29N 43°35' E 010°19'0 0.0
2018-Apr-14 08:59N 43°35' E 010°19'0 0.0
2018-Apr-14 08:29N 43°35' E 010°19'0 0.0
2018-Apr-14 07:59N 43°35' E 010°19'0 0.0
2018-Apr-14 07:29N 43°35' E 010°19'0 0.0
2018-Apr-14 06:59N 43°35' E 010°19'0 0.0
2018-Apr-14 06:29N 43°35' E 010°19'0 0.0
2018-Apr-14 05:59N 43°35' E 010°19'0 0.0
2018-Apr-14 05:29N 43°35' E 010°19'0 0.0
2018-Apr-14 04:59N 43°35' E 010°19'0 0.0
2018-Apr-14 04:26N 43°35' E 010°19'0 0.0
2018-Apr-14 03:59N 43°35' E 010°19'0 0.0
2018-Apr-14 03:26N 43°35' E 010°19'0 0.0
2018-Apr-14 02:59N 43°35' E 010°19'0 0.0
2018-Apr-14 02:29N 43°35' E 010°19'2 3.2
2018-Apr-14 02:01N 43°33' E 010°18'4 8.8
2018-Apr-14 01:30N 43°30' E 010°14'815.9
2018-Apr-14 01:00N 43°22' E 010°17'816.4
2018-Apr-14 00:30N 43°14' E 010°20'816.3
2018-Apr-14 00:00N 43°06' E 010°23'816.8
2018-Apr-13 23:30N 42°58' E 010°27'816.6
2018-Apr-13 23:00N 42°51' E 010°31'816.3
2018-Apr-13 22:30N 42°44' E 010°38'1916.5
2018-Apr-13 21:21N 42°29' E 010°54'26516.4
2018-Apr-13 05:14N 39°10' E 014°44'2516.1
2018-Apr-13 03:40N 38°51' E 015°05'316.0
2018-Apr-13 03:28N 38°48' E 015°08'716.1
2018-Apr-13 03:00N 38°43' E 015°14'816.1
2018-Apr-13 02:30N 38°37' E 015°21'816.4
2018-Apr-13 02:01N 38°30' E 015°28'816.3
2018-Apr-13 01:31N 38°24' E 015°35'816.7
2018-Apr-13 01:01N 38°18' E 015°41'613.0
2018-Apr-13 00:31N 38°12' E 015°37'713.8
2018-Apr-13 00:00N 38°05' E 015°35'1015.5
2018-Apr-12 23:21N 37°56' E 015°29'1416.7
2018-Apr-12 22:31N 37°44' E 015°21'117.0
2018-Apr-12 22:27N 37°43' E 015°21'  
Track history (hours):
 
Tides and Currents Weather Stations Pressure Air Temp Water Temp Dewpoint Dewpoint Depression Visibility Wind Speed Wind Dir Waves Ship Positions

Eurocargo Salerno

Last reported at 2018-Apr-22 16:30 UTC. Time now 2018-Apr-23 05:13 UTC.
Position N 37°54' E 015°26'.

Length 195 m; draft 7 m.

Type: Cargo ship. MMSI: 229706000.

Date/timePositionNaut miles runAvg speedWind from/ knotsBaromVisibWave heightAir tempDewpointWater temp
2018-Apr-22 16:30N 37°54' E 015°26'815.5
2018-Apr-22 15:58N 38°01' E 015°31'715.7
2018-Apr-22 15:30N 38°08' E 015°35'916.2
2018-Apr-22 14:59N 38°16' E 015°40'714.0
2018-Apr-22 14:30N 38°22' E 015°37'815.8
2018-Apr-22 13:59N 38°28' E 015°30'816.0
2018-Apr-22 13:28N 38°34' E 015°22'816.1
2018-Apr-22 13:00N 38°39' E 015°15'815.8
2018-Apr-22 12:31N 38°45' E 015°09'8215.7
2018-Apr-22 07:17N 39°47' E 013°59'415.6
2018-Apr-22 07:01N 39°50' E 013°55'815.6
2018-Apr-22 06:30N 39°56' E 013°49'2215.6
2018-Apr-22 05:06N 40°12' E 013°30'1515.6
2018-Apr-22 04:09N 40°24' E 013°17'215.5
2018-Apr-22 04:00N 40°26' E 013°15'815.6
2018-Apr-22 03:29N 40°32' E 013°09'815.8
2018-Apr-22 02:58N 40°38' E 013°02'715.8
2018-Apr-22 02:30N 40°44' E 012°56'1915.9
2018-Apr-22 01:20N 40°58' E 012°40'516.0
2018-Apr-22 00:59N 41°02' E 012°36'816.1
2018-Apr-22 00:29N 41°09' E 012°29'816.0
2018-Apr-22 00:00N 41°15' E 012°22'2115.7
2018-Apr-21 22:40N 41°31' E 012°05'6615.5
2018-Apr-21 18:24N 42°21' E 011°06'915.5
2018-Apr-21 17:48N 42°27' E 010°57'1415.8
2018-Apr-21 16:57N 42°37' E 010°45'816.0
2018-Apr-21 16:27N 42°44' E 010°38'716.0
2018-Apr-21 16:01N 42°49' E 010°33'815.8
2018-Apr-21 15:31N 42°56' E 010°28'815.8
2018-Apr-21 15:01N 43°04' E 010°24'815.9
2018-Apr-21 14:31N 43°11' E 010°20'816.1
2018-Apr-21 14:01N 43°19' E 010°17'816.0
2018-Apr-21 13:31N 43°27' E 010°15'510.9
2018-Apr-21 13:00N 43°32' E 010°16'3 5.8
2018-Apr-21 12:30N 43°34' E 010°19'1 1.0
2018-Apr-21 11:56N 43°35' E 010°19'0 0.0
2018-Apr-21 11:29N 43°35' E 010°19'0 0.0
2018-Apr-21 11:00N 43°35' E 010°19'0 0.0
2018-Apr-21 10:29N 43°35' E 010°19'0 0.0
2018-Apr-21 10:00N 43°35' E 010°19'0 0.0
2018-Apr-21 09:29N 43°35' E 010°19'0 0.0
2018-Apr-21 08:59N 43°35' E 010°19'0 0.0
2018-Apr-21 08:29N 43°35' E 010°19'0 0.0
2018-Apr-21 08:00N 43°35' E 010°19'0 0.0
2018-Apr-21 07:29N 43°35' E 010°19'0 0.0
2018-Apr-21 06:59N 43°35' E 010°19'0 0.8
2018-Apr-21 06:30N 43°34' E 010°19'3 5.8
2018-Apr-21 06:00N 43°32' E 010°16'3 6.9
2018-Apr-21 05:30N 43°29' E 010°14'3 5.6
2018-Apr-21 05:00N 43°26' E 010°13'1 1.5
2018-Apr-21 04:30N 43°26' E 010°14'0 0.6
2018-Apr-21 04:00N 43°26' E 010°14'1 1.3
2018-Apr-21 03:30N 43°26' E 010°15'0 0.9
2018-Apr-21 03:00N 43°27' E 010°15'1 2.0
2018-Apr-21 02:30N 43°26' E 010°15'713.8
2018-Apr-21 02:00N 43°19' E 010°18'816.5
2018-Apr-21 01:30N 43°11' E 010°21'816.6
2018-Apr-21 01:00N 43°03' E 010°24'816.6
2018-Apr-21 00:30N 42°55' E 010°28'816.4
2018-Apr-21 00:00N 42°49' E 010°34'1016.4
2018-Apr-20 23:25N 42°41' E 010°42'16016.1
2018-Apr-20 13:27N 40°40' E 013°02'916.2
2018-Apr-20 12:55N 40°33' E 013°10'2816.4
2018-Apr-20 11:13N 40°13' E 013°34'316.2
2018-Apr-20 11:00N 40°10' E 013°37'816.4
2018-Apr-20 10:30N 40°04' E 013°44'916.5
2018-Apr-20 09:58N 39°57' E 013°52'816.3
2018-Apr-20 09:30N 39°52' E 013°59'7716.4
2018-Apr-20 04:46N 38°52' E 015°03'516.0
2018-Apr-20 04:29N 38°49' E 015°07'815.8
2018-Apr-20 04:00N 38°43' E 015°13'816.1
2018-Apr-20 03:30N 38°38' E 015°20'816.2
2018-Apr-20 03:00N 38°32' E 015°28'816.2
2018-Apr-20 02:30N 38°25' E 015°34'816.2
2018-Apr-20 02:00N 38°19' E 015°40'510.7
2018-Apr-20 01:30N 38°14' E 015°37'815.5
2018-Apr-20 00:59N 38°06' E 015°36'816.0
2018-Apr-20 00:30N 37°59' E 015°32'816.2
2018-Apr-19 23:59N 37°51' E 015°27'816.6
2018-Apr-19 23:30N 37°44' E 015°23'10 0.8
2018-Apr-19 11:10N 37°54' E 015°26'816.4
2018-Apr-19 10:39N 38°02' E 015°31'316.4
2018-Apr-19 10:29N 38°04' E 015°32'816.1
2018-Apr-19 10:00N 38°11' E 015°35'815.8
2018-Apr-19 09:30N 38°18' E 015°40'815.9
2018-Apr-19 08:59N 38°26' E 015°37'815.6
2018-Apr-19 08:29N 38°33' E 015°32'815.1
2018-Apr-19 07:58N 38°40' E 015°28'715.3
2018-Apr-19 07:29N 38°47' E 015°25'9215.8
2018-Apr-19 01:38N 40°14' E 014°43'415.7
2018-Apr-19 01:21N 40°18' E 014°43'815.8
2018-Apr-19 00:51N 40°26' E 014°43'616.0
2018-Apr-19 00:30N 40°31' E 014°43'6 1.0
2018-Apr-18 19:04N 40°37' E 014°41'114.5
2018-Apr-18 19:00N 40°36' E 014°40'815.2
2018-Apr-18 18:30N 40°34' E 014°30'715.3
2018-Apr-18 18:00N 40°32' E 014°21'1015.0
2018-Apr-18 17:19N 40°32' E 014°07'515.2
2018-Apr-18 17:00N 40°34' E 014°01'815.9
2018-Apr-18 16:30N 40°38' E 013°52'815.8
2018-Apr-18 16:00N 40°43' E 013°44'816.0
2018-Apr-18 15:30N 40°48' E 013°36'17615.6
2018-Apr-18 04:15N 42°44' E 010°39'1215.9
2018-Apr-18 03:31N 42°53' E 010°30'215.9
2018-Apr-18 03:25N 42°54' E 010°28'715.7
2018-Apr-18 02:59N 42°59' E 010°22'715.7
2018-Apr-18 02:30N 43°03' E 010°14'815.7
2018-Apr-18 02:00N 43°09' E 010°05'815.7
2018-Apr-18 01:30N 43°13' E 009°57'815.7
2018-Apr-18 01:00N 43°18' E 009°48'815.3
2018-Apr-18 00:30N 43°23' E 009°41'815.6
2018-Apr-18 00:00N 43°30' E 009°36'815.9
2018-Apr-17 23:30N 43°37' E 009°30'815.2
2018-Apr-17 23:00N 43°44' E 009°24'715.0
2018-Apr-17 22:30N 43°50' E 009°19'815.1
2018-Apr-17 22:00N 43°56' E 009°13'815.1
2018-Apr-17 21:30N 44°03' E 009°08'815.3
2018-Apr-17 21:00N 44°10' E 009°04'815.6
2018-Apr-17 20:30N 44°17' E 008°60'713.6
2018-Apr-17 20:00N 44°23' E 008°56'2 4.2
2018-Apr-17 19:28N 44°24' E 008°53'0 0.0
2018-Apr-17 18:55N 44°24' E 008°53'0 0.0
2018-Apr-17 18:28N 44°24' E 008°53'0 0.0
2018-Apr-17 17:58N 44°24' E 008°53'0 0.0
2018-Apr-17 17:28N 44°24' E 008°53'0 0.0
2018-Apr-17 16:58N 44°24' E 008°53'0 0.0
2018-Apr-17 16:28N 44°24' E 008°53'0 0.0
2018-Apr-17 15:58N 44°24' E 008°53'0 0.0
2018-Apr-17 15:28N 44°24' E 008°53'0 0.0
2018-Apr-17 14:58N 44°24' E 008°53'0 0.0
2018-Apr-17 14:28N 44°24' E 008°53'0 0.0
2018-Apr-17 13:58N 44°24' E 008°53'0 0.0
2018-Apr-17 13:28N 44°24' E 008°53'0 0.0
2018-Apr-17 12:58N 44°24' E 008°53'0 0.0
2018-Apr-17 12:28N 44°24' E 008°53'0 0.0
2018-Apr-17 11:58N 44°24' E 008°53'0 0.0
2018-Apr-17 11:28N 44°24' E 008°53'0 0.0
2018-Apr-17 10:58N 44°24' E 008°53'0 0.0
2018-Apr-17 10:28N 44°24' E 008°53'1 1.1
2018-Apr-17 10:00N 44°24' E 008°54'3 6.9
2018-Apr-17 09:30N 44°22' E 008°58'714.9
2018-Apr-17 09:00N 44°15' E 009°02'816.6
2018-Apr-17 08:30N 44°08' E 009°08'816.7
2018-Apr-17 08:00N 44°01' E 009°14'816.7
2018-Apr-17 07:30N 43°54' E 009°20'917.0
2018-Apr-17 07:00N 43°47' E 009°26'816.8
2018-Apr-17 06:30N 43°39' E 009°32'816.4
2018-Apr-17 06:00N 43°32' E 009°37'816.2
2018-Apr-17 05:30N 43°25' E 009°43'816.3
2018-Apr-17 05:00N 43°19' E 009°50'816.0
2018-Apr-17 04:30N 43°13' E 009°58'815.7
2018-Apr-17 04:00N 43°08' E 010°06'815.8
2018-Apr-17 03:30N 43°03' E 010°14'816.0
2018-Apr-17 03:00N 42°58' E 010°22'815.6
2018-Apr-17 02:30N 42°52' E 010°30'815.8
2018-Apr-17 02:00N 42°45' E 010°35'815.7
2018-Apr-17 01:30N 42°39' E 010°42'30116.0
2018-Apr-16 06:39N 38°52' E 015°04'515.8
2018-Apr-16 06:20N 38°48' E 015°08'516.3
2018-Apr-16 06:00N 38°44' E 015°12'816.0
2018-Apr-16 05:30N 38°38' E 015°19'816.5
2018-Apr-16 05:00N 38°33' E 015°27'816.2
2018-Apr-16 04:30N 38°27' E 015°34'816.1
2018-Apr-16 04:00N 38°21' E 015°41'510.7
2018-Apr-16 03:30N 38°15' E 015°40'814.9
2018-Apr-16 03:00N 38°08' E 015°37'815.3
2018-Apr-16 02:30N 38°01' E 015°33'916.1
2018-Apr-16 01:58N 37°53' E 015°28'915.9
2018-Apr-16 01:24N 37°46' E 015°22'9 0.9
2018-Apr-15 15:03N 37°54' E 015°26'114.7
2018-Apr-15 15:00N 37°55' E 015°27'814.8
2018-Apr-15 14:30N 38°02' E 015°31'714.4
2018-Apr-15 14:01N 38°08' E 015°34'714.6
2018-Apr-15 13:31N 38°15' E 015°38'511.0
2018-Apr-15 13:01N 38°20' E 015°38'816.0
2018-Apr-15 12:31N 38°26' E 015°32'815.7
2018-Apr-15 12:00N 38°32' E 015°25'715.1
2018-Apr-15 11:31N 38°38' E 015°19'915.5
2018-Apr-15 10:56N 38°45' E 015°11'7215.5
2018-Apr-15 06:17N 39°39' E 014°10'4815.0
2018-Apr-15 03:06N 40°15' E 013°30'214.6
2018-Apr-15 02:59N 40°17' E 013°28'714.6
2018-Apr-15 02:30N 40°22' E 013°22'714.5
2018-Apr-15 02:01N 40°27' E 013°16'714.3
2018-Apr-15 01:31N 40°32' E 013°09'17215.4
2018-Apr-14 14:23N 42°43' E 010°40'1815.5
2018-Apr-14 13:15N 42°58' E 010°27'415.4
2018-Apr-14 13:00N 43°01' E 010°25'816.0
2018-Apr-14 12:30N 43°08' E 010°21'815.8
2018-Apr-14 12:01N 43°16' E 010°18'815.6
2018-Apr-14 11:31N 43°24' E 010°16'815.3
2018-Apr-14 11:01N 43°31' E 010°14'5 9.3
2018-Apr-14 10:30N 43°34' E 010°18'1 1.2
2018-Apr-14 09:56N 43°35' E 010°19'0 0.0
2018-Apr-14 09:29N 43°35' E 010°19'0 0.0
2018-Apr-14 08:59N 43°35' E 010°19'0 0.0
2018-Apr-14 08:29N 43°35' E 010°19'0 0.0
2018-Apr-14 07:59N 43°35' E 010°19'0 0.0
2018-Apr-14 07:29N 43°35' E 010°19'0 0.0
2018-Apr-14 06:59N 43°35' E 010°19'0 0.0
2018-Apr-14 06:29N 43°35' E 010°19'0 0.0
2018-Apr-14 05:59N 43°35' E 010°19'0 0.0
2018-Apr-14 05:29N 43°35' E 010°19'0 0.0
2018-Apr-14 04:59N 43°35' E 010°19'0 0.0
2018-Apr-14 04:26N 43°35' E 010°19'0 0.0
2018-Apr-14 03:59N 43°35' E 010°19'0 0.0
2018-Apr-14 03:26N 43°35' E 010°19'0 0.0
2018-Apr-14 02:59N 43°35' E 010°19'0 0.0
2018-Apr-14 02:29N 43°35' E 010°19'2 3.2
2018-Apr-14 02:01N 43°33' E 010°18'4 8.8
2018-Apr-14 01:30N 43°30' E 010°14'815.9
2018-Apr-14 01:00N 43°22' E 010°17'816.4
2018-Apr-14 00:30N 43°14' E 010°20'816.3
2018-Apr-14 00:00N 43°06' E 010°23'816.8
2018-Apr-13 23:30N 42°58' E 010°27'816.6
2018-Apr-13 23:00N 42°51' E 010°31'816.3
2018-Apr-13 22:30N 42°44' E 010°38'1916.5
2018-Apr-13 21:21N 42°29' E 010°54'26516.4
2018-Apr-13 05:14N 39°10' E 014°44'2516.1
2018-Apr-13 03:40N 38°51' E 015°05'316.0
2018-Apr-13 03:28N 38°48' E 015°08'716.1
2018-Apr-13 03:00N 38°43' E 015°14'816.1
2018-Apr-13 02:30N 38°37' E 015°21'816.4
2018-Apr-13 02:01N 38°30' E 015°28'816.3
2018-Apr-13 01:31N 38°24' E 015°35'816.7
2018-Apr-13 01:01N 38°18' E 015°41'613.0
2018-Apr-13 00:31N 38°12' E 015°37'713.8
2018-Apr-13 00:00N 38°05' E 015°35'1015.5
2018-Apr-12 23:21N 37°56' E 015°29'1416.7
2018-Apr-12 22:31N 37°44' E 015°21'117.0
2018-Apr-12 22:27N 37°43' E 015°21'  

Dump ship's entire track history